Saratov, Russia
Current Conditions -  °F | °C
As of 6:30 AM on Sunday 23 Nov 2014 (Local Time) from UWSS Reporting Station
Clear Clear  
Wind Chill:   Ceiling: Unl
Heat Index: 21°   Visibility: 6mi
Dew Point: 16°   Wind: 16mph
Humidity: 80%   Direction: 320°NW
Pressure: 30.21"   Gusts: 22mph
Location:  51.57°N, 46.03°E
Report Text: UWSS 230330Z 32007G10MPS CAVOK M06/M09 Q1023 300///60 NOSIG RMKQFE753
Loading
Personal Weather Stations






























Interactive Weather Map New forecast layout! Learn more

10-Day Weather Forecast

Advertisements
Track Severe Weather on mobile